sensor_id;sensor_type;location;lat;lon;timestamp;P1;durP1;ratioP1;P2;durP2;ratioP2
48524;SDS011;34316;51.514;-0.178;2022-11-15T00:01:17;66.55;;;42.38;;
48524;SDS011;34316;51.514;-0.178;2022-11-15T00:03:23;74.28;;;45.45;;
48524;SDS011;34316;51.514;-0.178;2022-11-15T00:05:26;68.05;;;42.95;;
48524;SDS011;34316;51.514;-0.178;2022-11-15T00:07:28;65.55;;;41.97;;
48524;SDS011;34316;51.514;-0.178;2022-11-15T00:09:49;64.55;;;39.95;;
48524;SDS011;34316;51.514;-0.178;2022-11-15T00:11:51;72.88;;;42.75;;
48524;SDS011;34316;51.514;-0.178;2022-11-15T00:13:57;67.97;;;42.13;;
48524;SDS011;34316;51.514;-0.178;2022-11-15T00:16:00;65.78;;;42.65;;
48524;SDS011;34316;51.514;-0.178;2022-11-15T00:18:03;73.72;;;42.08;;
48524;SDS011;34316;51.514;-0.178;2022-11-15T00:20:05;67.45;;;41.55;;
48524;SDS011;34316;51.514;-0.178;2022-11-15T00:22:07;61.20;;;39.75;;
48524;SDS011;34316;51.514;-0.178;2022-11-15T00:24:08;63.45;;;41.70;;
48524;SDS011;34316;51.514;-0.178;2022-11-15T00:26:14;72.95;;;45.33;;
48524;SDS011;34316;51.514;-0.178;2022-11-15T00:28:16;64.53;;;42.17;;
48524;SDS011;34316;51.514;-0.178;2022-11-15T00:30:17;62.42;;;39.95;;
48524;SDS011;34316;51.514;-0.178;2022-11-15T00:32:19;65.57;;;42.75;;
48524;SDS011;34316;51.514;-0.178;2022-11-15T00:34:21;67.10;;;45.55;;
48524;SDS011;34316;51.514;-0.178;2022-11-15T00:36:22;69.18;;;44.50;;
48524;SDS011;34316;51.514;-0.178;2022-11-15T00:38:24;72.10;;;44.03;;
48524;SDS011;34316;51.514;-0.178;2022-11-15T00:40:26;69.90;;;45.83;;
48524;SDS011;34316;51.514;-0.178;2022-11-15T00:42:30;68.93;;;44.90;;
48524;SDS011;34316;51.514;-0.178;2022-11-15T00:44:32;64.63;;;41.00;;
48524;SDS011;34316;51.514;-0.178;2022-11-15T00:46:34;64.82;;;43.58;;
48524;SDS011;34316;51.514;-0.178;2022-11-15T00:48:36;62.80;;;40.45;;
48524;SDS011;34316;51.514;-0.178;2022-11-15T00:50:37;69.65;;;43.60;;
48524;SDS011;34316;51.514;-0.178;2022-11-15T00:52:39;64.53;;;40.30;;
48524;SDS011;34316;51.514;-0.178;2022-11-15T00:54:41;61.60;;;41.03;;
48524;SDS011;34316;51.514;-0.178;2022-11-15T00:56:42;60.38;;;41.25;;
48524;SDS011;34316;51.514;-0.178;2022-11-15T00:58:44;66.22;;;43.97;;
48524;SDS011;34316;51.514;-0.178;2022-11-15T01:00:46;62.85;;;41.47;;
48524;SDS011;34316;51.514;-0.178;2022-11-15T01:02:48;59.47;;;38.75;;
48524;SDS011;34316;51.514;-0.178;2022-11-15T01:04:49;57.53;;;37.13;;
48524;SDS011;34316;51.514;-0.178;2022-11-15T01:06:51;57.25;;;36.53;;
48524;SDS011;34316;51.514;-0.178;2022-11-15T01:08:53;59.00;;;35.85;;
48524;SDS011;34316;51.514;-0.178;2022-11-15T01:10:54;61.40;;;38.47;;
48524;SDS011;34316;51.514;-0.178;2022-11-15T01:13:05;61.70;;;37.75;;
48524;SDS011;34316;51.514;-0.178;2022-11-15T01:15:06;65.10;;;39.80;;
48524;SDS011;34316;51.514;-0.178;2022-11-15T01:17:08;59.22;;;38.05;;
48524;SDS011;34316;51.514;-0.178;2022-11-15T01:19:10;59.33;;;39.03;;
48524;SDS011;34316;51.514;-0.178;2022-11-15T01:21:14;61.60;;;39.03;;
48524;SDS011;34316;51.514;-0.178;2022-11-15T01:23:17;54.55;;;36.05;;
48524;SDS011;34316;51.514;-0.178;2022-11-15T01:25:19;61.60;;;37.65;;
48524;SDS011;34316;51.514;-0.178;2022-11-15T01:27:21;58.45;;;36.97;;
48524;SDS011;34316;51.514;-0.178;2022-11-15T01:29:22;57.15;;;35.38;;
48524;SDS011;34316;51.514;-0.178;2022-11-15T01:31:24;63.25;;;36.15;;
48524;SDS011;34316;51.514;-0.178;2022-11-15T01:33:27;61.88;;;36.28;;
48524;SDS011;34316;51.514;-0.178;2022-11-15T01:35:29;61.58;;;36.53;;
48524;SDS011;34316;51.514;-0.178;2022-11-15T01:37:31;55.30;;;34.88;;
48524;SDS011;34316;51.514;-0.178;2022-11-15T01:39:33;55.10;;;36.08;;
48524;SDS011;34316;51.514;-0.178;2022-11-15T01:41:34;61.75;;;35.83;;
48524;SDS011;34316;51.514;-0.178;2022-11-15T01:43:36;54.50;;;35.97;;
48524;SDS011;34316;51.514;-0.178;2022-11-15T01:45:38;57.65;;;35.05;;
48524;SDS011;34316;51.514;-0.178;2022-11-15T01:47:44;51.45;;;34.33;;
48524;SDS011;34316;51.514;-0.178;2022-11-15T01:49:59;53.08;;;33.42;;
48524;SDS011;34316;51.514;-0.178;2022-11-15T01:52:43;50.25;;;32.30;;
48524;SDS011;34316;51.514;-0.178;2022-11-15T01:57:44;49.03;;;33.88;;
48524;SDS011;34316;51.514;-0.178;2022-11-15T01:59:48;49.30;;;32.63;;
48524;SDS011;34316;51.514;-0.178;2022-11-15T02:01:50;53.53;;;34.72;;
48524;SDS011;34316;51.514;-0.178;2022-11-15T02:03:54;59.70;;;35.67;;
48524;SDS011;34316;51.514;-0.178;2022-11-15T02:05:59;53.50;;;34.22;;
48524;SDS011;34316;51.514;-0.178;2022-11-15T02:08:01;58.80;;;34.60;;
48524;SDS011;34316;51.514;-0.178;2022-11-15T02:10:05;54.95;;;33.28;;
48524;SDS011;34316;51.514;-0.178;2022-11-15T02:12:08;50.83;;;32.28;;
48524;SDS011;34316;51.514;-0.178;2022-11-15T02:14:11;52.72;;;34.05;;
48524;SDS011;34316;51.514;-0.178;2022-11-15T02:18:35;61.40;;;37.22;;
48524;SDS011;34316;51.514;-0.178;2022-11-15T02:27:39;61.97;;;39.05;;
48524;SDS011;34316;51.514;-0.178;2022-11-15T02:32:33;65.97;;;39.30;;
48524;SDS011;34316;51.514;-0.178;2022-11-15T02:39:34;62.63;;;40.28;;
48524;SDS011;34316;51.514;-0.178;2022-11-15T02:41:41;59.92;;;38.22;;
48524;SDS011;34316;51.514;-0.178;2022-11-15T02:43:54;60.83;;;40.67;;
48524;SDS011;34316;51.514;-0.178;2022-11-15T02:46:12;60.63;;;39.42;;
48524;SDS011;34316;51.514;-0.178;2022-11-15T02:48:18;55.15;;;37.63;;
48524;SDS011;34316;51.514;-0.178;2022-11-15T02:50:24;53.83;;;38.70;;
48524;SDS011;34316;51.514;-0.178;2022-11-15T02:52:27;60.65;;;38.47;;
48524;SDS011;34316;51.514;-0.178;2022-11-15T02:54:30;54.78;;;38.25;;
48524;SDS011;34316;51.514;-0.178;2022-11-15T02:56:33;58.58;;;35.38;;
48524;SDS011;34316;51.514;-0.178;2022-11-15T03:10:06;62.63;;;40.53;;
48524;SDS011;34316;51.514;-0.178;2022-11-15T03:14:37;64.50;;;39.78;;
48524;SDS011;34316;51.514;-0.178;2022-11-15T03:19:30;69.38;;;40.08;;
48524;SDS011;34316;51.514;-0.178;2022-11-15T03:21:35;60.38;;;39.38;;
48524;SDS011;34316;51.514;-0.178;2022-11-15T03:23:38;72.05;;;43.85;;
48524;SDS011;34316;51.514;-0.178;2022-11-15T03:25:41;71.82;;;42.60;;
48524;SDS011;34316;51.514;-0.178;2022-11-15T03:27:48;69.78;;;42.45;;
48524;SDS011;34316;51.514;-0.178;2022-11-15T03:29:55;81.30;;;44.83;;
48524;SDS011;34316;51.514;-0.178;2022-11-15T03:32:01;82.68;;;45.67;;
48524;SDS011;34316;51.514;-0.178;2022-11-15T03:34:05;87.88;;;46.78;;
48524;SDS011;34316;51.514;-0.178;2022-11-15T03:36:09;89.32;;;46.92;;
48524;SDS011;34316;51.514;-0.178;2022-11-15T03:38:15;93.43;;;46.97;;
48524;SDS011;34316;51.514;-0.178;2022-11-15T03:40:24;97.70;;;48.60;;
48524;SDS011;34316;51.514;-0.178;2022-11-15T03:42:39;82.20;;;44.78;;
48524;SDS011;34316;51.514;-0.178;2022-11-15T03:45:03;94.10;;;47.13;;
48524;SDS011;34316;51.514;-0.178;2022-11-15T03:47:34;86.80;;;45.67;;
48524;SDS011;34316;51.514;-0.178;2022-11-15T03:49:34;90.60;;;45.35;;
48524;SDS011;34316;51.514;-0.178;2022-11-15T03:51:37;89.70;;;43.30;;
48524;SDS011;34316;51.514;-0.178;2022-11-15T03:53:40;87.15;;;45.05;;
48524;SDS011;34316;51.514;-0.178;2022-11-15T03:55:42;90.72;;;44.50;;
48524;SDS011;34316;51.514;-0.178;2022-11-15T03:57:44;85.30;;;44.80;;
48524;SDS011;34316;51.514;-0.178;2022-11-15T03:59:46;88.68;;;43.38;;
48524;SDS011;34316;51.514;-0.178;2022-11-15T04:01:48;86.80;;;42.75;;
48524;SDS011;34316;51.514;-0.178;2022-11-15T04:03:49;92.88;;;45.15;;
48524;SDS011;34316;51.514;-0.178;2022-11-15T04:05:51;89.05;;;45.38;;
48524;SDS011;34316;51.514;-0.178;2022-11-15T04:07:53;90.20;;;44.33;;
48524;SDS011;34316;51.514;-0.178;2022-11-15T04:09:55;90.43;;;45.88;;
48524;SDS011;34316;51.514;-0.178;2022-11-15T04:12:06;90.35;;;44.38;;
48524;SDS011;34316;51.514;-0.178;2022-11-15T04:14:08;87.88;;;46.05;;
48524;SDS011;34316;51.514;-0.178;2022-11-15T04:16:10;88.38;;;43.13;;
48524;SDS011;34316;51.514;-0.178;2022-11-15T04:18:11;88.30;;;44.15;;
48524;SDS011;34316;51.514;-0.178;2022-11-15T04:20:17;86.38;;;42.42;;
48524;SDS011;34316;51.514;-0.178;2022-11-15T04:22:38;76.60;;;42.35;;
48524;SDS011;34316;51.514;-0.178;2022-11-15T04:24:58;82.05;;;41.08;;
48524;SDS011;34316;51.514;-0.178;2022-11-15T04:27:00;89.45;;;45.15;;
48524;SDS011;34316;51.514;-0.178;2022-11-15T04:29:02;85.07;;;43.25;;
48524;SDS011;34316;51.514;-0.178;2022-11-15T04:31:22;90.95;;;42.40;;
48524;SDS011;34316;51.514;-0.178;2022-11-15T04:33:24;81.53;;;41.60;;
48524;SDS011;34316;51.514;-0.178;2022-11-15T04:35:26;89.32;;;41.28;;
48524;SDS011;34316;51.514;-0.178;2022-11-15T04:37:28;89.13;;;41.80;;
48524;SDS011;34316;51.514;-0.178;2022-11-15T04:39:29;84.65;;;42.50;;
48524;SDS011;34316;51.514;-0.178;2022-11-15T04:41:31;90.55;;;43.90;;
48524;SDS011;34316;51.514;-0.178;2022-11-15T04:43:33;94.10;;;44.20;;
48524;SDS011;34316;51.514;-0.178;2022-11-15T04:45:35;96.22;;;42.53;;
48524;SDS011;34316;51.514;-0.178;2022-11-15T04:47:36;95.10;;;46.00;;
48524;SDS011;34316;51.514;-0.178;2022-11-15T04:49:38;106.88;;;47.00;;
48524;SDS011;34316;51.514;-0.178;2022-11-15T04:51:40;101.38;;;46.35;;
48524;SDS011;34316;51.514;-0.178;2022-11-15T04:53:42;98.88;;;47.92;;
48524;SDS011;34316;51.514;-0.178;2022-11-15T04:55:44;92.22;;;48.25;;
48524;SDS011;34316;51.514;-0.178;2022-11-15T04:57:47;104.07;;;50.83;;
48524;SDS011;34316;51.514;-0.178;2022-11-15T04:59:48;99.32;;;49.88;;
48524;SDS011;34316;51.514;-0.178;2022-11-15T05:01:50;107.07;;;49.67;;
48524;SDS011;34316;51.514;-0.178;2022-11-15T05:03:52;104.22;;;48.58;;
48524;SDS011;34316;51.514;-0.178;2022-11-15T05:06:29;100.60;;;47.25;;
48524;SDS011;34316;51.514;-0.178;2022-11-15T05:08:32;106.88;;;49.03;;
48524;SDS011;34316;51.514;-0.178;2022-11-15T05:10:33;102.43;;;49.08;;
48524;SDS011;34316;51.514;-0.178;2022-11-15T05:12:35;110.75;;;50.92;;
48524;SDS011;34316;51.514;-0.178;2022-11-15T05:14:37;118.10;;;52.85;;
48524;SDS011;34316;51.514;-0.178;2022-11-15T05:16:39;115.05;;;50.92;;
48524;SDS011;34316;51.514;-0.178;2022-11-15T05:18:40;120.93;;;54.85;;
48524;SDS011;34316;51.514;-0.178;2022-11-15T05:20:42;113.88;;;55.47;;
48524;SDS011;34316;51.514;-0.178;2022-11-15T05:22:44;125.93;;;54.25;;
48524;SDS011;34316;51.514;-0.178;2022-11-15T05:24:46;107.75;;;51.40;;
48524;SDS011;34316;51.514;-0.178;2022-11-15T05:26:47;94.18;;;45.95;;
48524;SDS011;34316;51.514;-0.178;2022-11-15T05:28:55;95.40;;;47.80;;
48524;SDS011;34316;51.514;-0.178;2022-11-15T05:31:01;105.85;;;52.25;;
48524;SDS011;34316;51.514;-0.178;2022-11-15T05:33:03;88.75;;;42.20;;
48524;SDS011;34316;51.514;-0.178;2022-11-15T05:35:05;76.38;;;42.83;;
48524;SDS011;34316;51.514;-0.178;2022-11-15T05:37:08;78.40;;;43.25;;
48524;SDS011;34316;51.514;-0.178;2022-11-15T05:39:10;85.60;;;41.83;;
48524;SDS011;34316;51.514;-0.178;2022-11-15T05:41:11;77.57;;;39.60;;
48524;SDS011;34316;51.514;-0.178;2022-11-15T05:43:14;72.38;;;39.00;;
48524;SDS011;34316;51.514;-0.178;2022-11-15T05:45:15;85.68;;;39.80;;
48524;SDS011;34316;51.514;-0.178;2022-11-15T05:47:25;75.22;;;39.13;;
48524;SDS011;34316;51.514;-0.178;2022-11-15T05:49:29;81.38;;;39.25;;
48524;SDS011;34316;51.514;-0.178;2022-11-15T05:51:33;81.75;;;39.50;;
48524;SDS011;34316;51.514;-0.178;2022-11-15T05:53:35;94.22;;;44.83;;
48524;SDS011;34316;51.514;-0.178;2022-11-15T05:55:38;93.07;;;42.22;;
48524;SDS011;34316;51.514;-0.178;2022-11-15T05:57:40;96.05;;;45.05;;
48524;SDS011;34316;51.514;-0.178;2022-11-15T05:59:42;104.32;;;47.53;;
48524;SDS011;34316;51.514;-0.178;2022-11-15T06:01:44;98.53;;;47.45;;
48524;SDS011;34316;51.514;-0.178;2022-11-15T06:03:46;99.72;;;47.80;;
48524;SDS011;34316;51.514;-0.178;2022-11-15T06:05:48;106.20;;;50.25;;
48524;SDS011;34316;51.514;-0.178;2022-11-15T06:07:49;116.30;;;53.20;;
48524;SDS011;34316;51.514;-0.178;2022-11-15T06:09:51;114.07;;;51.53;;
48524;SDS011;34316;51.514;-0.178;2022-11-15T06:11:53;95.80;;;46.13;;
48524;SDS011;34316;51.514;-0.178;2022-11-15T06:13:54;120.03;;;53.25;;
48524;SDS011;34316;51.514;-0.178;2022-11-15T06:15:57;117.68;;;48.72;;
48524;SDS011;34316;51.514;-0.178;2022-11-15T06:17:59;115.05;;;51.35;;
48524;SDS011;34316;51.514;-0.178;2022-11-15T06:20:01;139.35;;;52.78;;
48524;SDS011;34316;51.514;-0.178;2022-11-15T06:22:03;130.13;;;53.28;;
48524;SDS011;34316;51.514;-0.178;2022-11-15T06:24:05;129.10;;;53.40;;
48524;SDS011;34316;51.514;-0.178;2022-11-15T06:26:07;145.65;;;57.63;;
48524;SDS011;34316;51.514;-0.178;2022-11-15T06:28:08;141.52;;;57.28;;
48524;SDS011;34316;51.514;-0.178;2022-11-15T06:30:10;132.95;;;58.85;;
48524;SDS011;34316;51.514;-0.178;2022-11-15T06:32:12;144.75;;;55.50;;
48524;SDS011;34316;51.514;-0.178;2022-11-15T06:34:13;132.15;;;55.83;;
48524;SDS011;34316;51.514;-0.178;2022-11-15T06:36:15;133.73;;;56.55;;
48524;SDS011;34316;51.514;-0.178;2022-11-15T06:38:18;153.47;;;59.33;;
48524;SDS011;34316;51.514;-0.178;2022-11-15T06:40:20;146.93;;;59.35;;
48524;SDS011;34316;51.514;-0.178;2022-11-15T06:42:22;190.30;;;64.78;;
48524;SDS011;34316;51.514;-0.178;2022-11-15T06:44:23;167.15;;;62.55;;
48524;SDS011;34316;51.514;-0.178;2022-11-15T06:46:25;165.90;;;62.45;;
48524;SDS011;34316;51.514;-0.178;2022-11-15T06:48:27;171.15;;;65.72;;
48524;SDS011;34316;51.514;-0.178;2022-11-15T06:50:29;159.32;;;62.40;;
48524;SDS011;34316;51.514;-0.178;2022-11-15T06:52:31;170.95;;;61.88;;
48524;SDS011;34316;51.514;-0.178;2022-11-15T06:54:33;145.93;;;59.42;;
48524;SDS011;34316;51.514;-0.178;2022-11-15T06:56:35;139.88;;;58.22;;
48524;SDS011;34316;51.514;-0.178;2022-11-15T06:58:37;139.27;;;62.22;;
48524;SDS011;34316;51.514;-0.178;2022-11-15T07:00:38;136.57;;;57.63;;
48524;SDS011;34316;51.514;-0.178;2022-11-15T07:02:40;145.85;;;60.70;;
48524;SDS011;34316;51.514;-0.178;2022-11-15T07:04:42;151.20;;;64.55;;
48524;SDS011;34316;51.514;-0.178;2022-11-15T07:06:45;138.30;;;61.10;;
48524;SDS011;34316;51.514;-0.178;2022-11-15T07:08:49;133.63;;;60.28;;
48524;SDS011;34316;51.514;-0.178;2022-11-15T07:10:51;140.50;;;62.30;;
48524;SDS011;34316;51.514;-0.178;2022-11-15T07:12:53;135.70;;;60.17;;
48524;SDS011;34316;51.514;-0.178;2022-11-15T07:14:55;132.98;;;59.53;;
48524;SDS011;34316;51.514;-0.178;2022-11-15T07:16:57;138.20;;;59.88;;
48524;SDS011;34316;51.514;-0.178;2022-11-15T07:18:58;119.93;;;55.75;;
48524;SDS011;34316;51.514;-0.178;2022-11-15T07:21:04;109.80;;;49.28;;
48524;SDS011;34316;51.514;-0.178;2022-11-15T07:23:07;112.30;;;49.95;;
48524;SDS011;34316;51.514;-0.178;2022-11-15T07:25:08;115.68;;;52.53;;
48524;SDS011;34316;51.514;-0.178;2022-11-15T07:27:10;108.55;;;51.60;;
48524;SDS011;34316;51.514;-0.178;2022-11-15T07:29:12;112.10;;;50.65;;
48524;SDS011;34316;51.514;-0.178;2022-11-15T07:31:14;105.38;;;52.90;;
48524;SDS011;34316;51.514;-0.178;2022-11-15T07:33:16;109.50;;;53.88;;
48524;SDS011;34316;51.514;-0.178;2022-11-15T07:35:17;99.75;;;51.00;;
48524;SDS011;34316;51.514;-0.178;2022-11-15T07:37:19;100.93;;;49.65;;
48524;SDS011;34316;51.514;-0.178;2022-11-15T07:39:21;107.50;;;49.00;;
48524;SDS011;34316;51.514;-0.178;2022-11-15T07:41:22;102.50;;;51.03;;
48524;SDS011;34316;51.514;-0.178;2022-11-15T07:43:24;101.03;;;49.83;;
48524;SDS011;34316;51.514;-0.178;2022-11-15T07:45:29;101.80;;;51.45;;
48524;SDS011;34316;51.514;-0.178;2022-11-15T07:47:31;97.55;;;49.08;;
48524;SDS011;34316;51.514;-0.178;2022-11-15T07:49:32;109.70;;;52.60;;
48524;SDS011;34316;51.514;-0.178;2022-11-15T07:51:34;98.28;;;49.95;;
48524;SDS011;34316;51.514;-0.178;2022-11-15T07:53:36;97.13;;;48.97;;
48524;SDS011;34316;51.514;-0.178;2022-11-15T07:55:39;97.30;;;50.35;;
48524;SDS011;34316;51.514;-0.178;2022-11-15T07:57:41;114.93;;;53.85;;
48524;SDS011;34316;51.514;-0.178;2022-11-15T07:59:43;113.95;;;55.25;;
48524;SDS011;34316;51.514;-0.178;2022-11-15T08:01:45;113.35;;;54.83;;
48524;SDS011;34316;51.514;-0.178;2022-11-15T08:03:46;117.50;;;55.20;;
48524;SDS011;34316;51.514;-0.178;2022-11-15T08:05:51;108.47;;;55.47;;
48524;SDS011;34316;51.514;-0.178;2022-11-15T08:07:54;112.90;;;53.05;;
48524;SDS011;34316;51.514;-0.178;2022-11-15T08:09:57;131.30;;;61.55;;
48524;SDS011;34316;51.514;-0.178;2022-11-15T08:11:59;128.02;;;60.25;;
48524;SDS011;34316;51.514;-0.178;2022-11-15T08:14:01;136.68;;;62.90;;
48524;SDS011;34316;51.514;-0.178;2022-11-15T08:16:04;132.38;;;64.28;;
48524;SDS011;34316;51.514;-0.178;2022-11-15T08:18:09;135.07;;;64.75;;
48524;SDS011;34316;51.514;-0.178;2022-11-15T08:20:12;135.27;;;61.67;;
48524;SDS011;34316;51.514;-0.178;2022-11-15T08:22:14;135.52;;;65.80;;
48524;SDS011;34316;51.514;-0.178;2022-11-15T08:24:16;134.93;;;65.88;;
48524;SDS011;34316;51.514;-0.178;2022-11-15T08:26:18;147.52;;;67.75;;
48524;SDS011;34316;51.514;-0.178;2022-11-15T08:28:19;133.07;;;64.57;;
48524;SDS011;34316;51.514;-0.178;2022-11-15T08:30:22;136.63;;;64.35;;
48524;SDS011;34316;51.514;-0.178;2022-11-15T08:32:25;140.17;;;68.33;;
48524;SDS011;34316;51.514;-0.178;2022-11-15T08:34:26;142.07;;;65.55;;
48524;SDS011;34316;51.514;-0.178;2022-11-15T08:36:28;153.02;;;67.25;;
48524;SDS011;34316;51.514;-0.178;2022-11-15T08:38:42;144.50;;;68.00;;
48524;SDS011;34316;51.514;-0.178;2022-11-15T08:40:43;149.48;;;65.03;;
48524;SDS011;34316;51.514;-0.178;2022-11-15T08:42:45;145.88;;;65.55;;
48524;SDS011;34316;51.514;-0.178;2022-11-15T08:44:48;143.27;;;66.88;;
48524;SDS011;34316;51.514;-0.178;2022-11-15T08:46:49;132.50;;;63.03;;
48524;SDS011;34316;51.514;-0.178;2022-11-15T08:48:51;123.70;;;61.22;;
48524;SDS011;34316;51.514;-0.178;2022-11-15T08:50:53;131.52;;;61.42;;
48524;SDS011;34316;51.514;-0.178;2022-11-15T08:52:56;124.45;;;59.08;;
48524;SDS011;34316;51.514;-0.178;2022-11-15T08:54:58;127.82;;;62.10;;
48524;SDS011;34316;51.514;-0.178;2022-11-15T08:56:59;124.97;;;58.78;;
48524;SDS011;34316;51.514;-0.178;2022-11-15T08:59:01;117.88;;;57.78;;
48524;SDS011;34316;51.514;-0.178;2022-11-15T09:01:03;123.90;;;63.15;;
48524;SDS011;34316;51.514;-0.178;2022-11-15T09:03:06;131.20;;;62.20;;
48524;SDS011;34316;51.514;-0.178;2022-11-15T09:05:08;128.52;;;62.10;;
48524;SDS011;34316;51.514;-0.178;2022-11-15T09:07:10;126.13;;;65.15;;
48524;SDS011;34316;51.514;-0.178;2022-11-15T09:09:12;130.10;;;62.97;;
48524;SDS011;34316;51.514;-0.178;2022-11-15T09:11:14;121.63;;;61.25;;
48524;SDS011;34316;51.514;-0.178;2022-11-15T09:13:17;139.00;;;63.15;;
48524;SDS011;34316;51.514;-0.178;2022-11-15T09:15:19;132.27;;;63.30;;
48524;SDS011;34316;51.514;-0.178;2022-11-15T09:17:21;129.15;;;64.15;;
48524;SDS011;34316;51.514;-0.178;2022-11-15T09:19:25;140.65;;;67.38;;
48524;SDS011;34316;51.514;-0.178;2022-11-15T09:21:28;144.13;;;70.38;;
48524;SDS011;34316;51.514;-0.178;2022-11-15T09:23:30;137.50;;;66.38;;
48524;SDS011;34316;51.514;-0.178;2022-11-15T09:25:32;129.07;;;65.57;;
48524;SDS011;34316;51.514;-0.178;2022-11-15T09:27:34;135.23;;;66.10;;
48524;SDS011;34316;51.514;-0.178;2022-11-15T09:29:53;139.23;;;71.38;;
48524;SDS011;34316;51.514;-0.178;2022-11-15T09:31:55;126.70;;;65.82;;
48524;SDS011;34316;51.514;-0.178;2022-11-15T09:33:57;135.23;;;67.88;;
48524;SDS011;34316;51.514;-0.178;2022-11-15T09:36:06;114.60;;;63.33;;
48524;SDS011;34316;51.514;-0.178;2022-11-15T09:38:09;136.23;;;65.90;;
48524;SDS011;34316;51.514;-0.178;2022-11-15T09:40:14;123.80;;;63.17;;
48524;SDS011;34316;51.514;-0.178;2022-11-15T09:49:02;121.47;;;60.92;;
48524;SDS011;34316;51.514;-0.178;2022-11-15T09:51:04;118.72;;;58.28;;
48524;SDS011;34316;51.514;-0.178;2022-11-15T09:53:14;108.60;;;57.08;;
48524;SDS011;34316;51.514;-0.178;2022-11-15T09:55:54;104.15;;;54.05;;
48524;SDS011;34316;51.514;-0.178;2022-11-15T09:58:30;102.45;;;55.05;;
48524;SDS011;34316;51.514;-0.178;2022-11-15T10:00:38;105.07;;;56.35;;
48524;SDS011;34316;51.514;-0.178;2022-11-15T10:05:14;109.13;;;58.58;;
48524;SDS011;34316;51.514;-0.178;2022-11-15T10:07:27;109.70;;;57.08;;
48524;SDS011;34316;51.514;-0.178;2022-11-15T10:10:20;115.15;;;55.50;;
48524;SDS011;34316;51.514;-0.178;2022-11-15T10:12:04;113.55;;;55.63;;
48524;SDS011;34316;51.514;-0.178;2022-11-15T10:21:17;124.32;;;57.63;;
48524;SDS011;34316;51.514;-0.178;2022-11-15T10:23:22;111.93;;;58.72;;
48524;SDS011;34316;51.514;-0.178;2022-11-15T10:25:25;110.85;;;54.88;;
48524;SDS011;34316;51.514;-0.178;2022-11-15T10:27:28;122.97;;;57.83;;
48524;SDS011;34316;51.514;-0.178;2022-11-15T10:29:30;116.72;;;56.97;;
48524;SDS011;34316;51.514;-0.178;2022-11-15T10:31:32;124.80;;;60.10;;
48524;SDS011;34316;51.514;-0.178;2022-11-15T10:33:37;115.68;;;54.40;;
48524;SDS011;34316;51.514;-0.178;2022-11-15T10:35:40;119.50;;;56.72;;
48524;SDS011;34316;51.514;-0.178;2022-11-15T10:37:42;119.20;;;56.40;;
48524;SDS011;34316;51.514;-0.178;2022-11-15T10:39:44;110.95;;;56.10;;
48524;SDS011;34316;51.514;-0.178;2022-11-15T10:42:16;125.57;;;55.92;;
48524;SDS011;34316;51.514;-0.178;2022-11-15T10:46:23;103.88;;;53.72;;
48524;SDS011;34316;51.514;-0.178;2022-11-15T10:48:45;97.15;;;51.22;;
48524;SDS011;34316;51.514;-0.178;2022-11-15T10:50:47;95.50;;;51.13;;
48524;SDS011;34316;51.514;-0.178;2022-11-15T10:52:50;96.30;;;51.42;;
48524;SDS011;34316;51.514;-0.178;2022-11-15T10:55:02;97.78;;;51.50;;
48524;SDS011;34316;51.514;-0.178;2022-11-15T10:57:07;93.38;;;50.03;;
48524;SDS011;34316;51.514;-0.178;2022-11-15T10:59:18;88.53;;;47.35;;
48524;SDS011;34316;51.514;-0.178;2022-11-15T11:01:45;88.93;;;48.95;;
48524;SDS011;34316;51.514;-0.178;2022-11-15T11:04:04;88.75;;;46.92;;
48524;SDS011;34316;51.514;-0.178;2022-11-15T11:06:12;85.70;;;46.47;;
48524;SDS011;34316;51.514;-0.178;2022-11-15T11:08:22;81.38;;;45.35;;
48524;SDS011;34316;51.514;-0.178;2022-11-15T11:10:25;86.07;;;46.42;;
48524;SDS011;34316;51.514;-0.178;2022-11-15T11:12:47;92.80;;;46.97;;
48524;SDS011;34316;51.514;-0.178;2022-11-15T11:14:49;83.32;;;48.15;;
48524;SDS011;34316;51.514;-0.178;2022-11-15T11:16:51;83.38;;;47.35;;
48524;SDS011;34316;51.514;-0.178;2022-11-15T11:19:11;91.15;;;47.58;;
48524;SDS011;34316;51.514;-0.178;2022-11-15T11:33:19;102.10;;;49.22;;
48524;SDS011;34316;51.514;-0.178;2022-11-15T11:37:50;90.15;;;50.70;;
48524;SDS011;34316;51.514;-0.178;2022-11-15T11:40:18;102.22;;;54.33;;
48524;SDS011;34316;51.514;-0.178;2022-11-15T11:42:44;106.72;;;52.72;;
48524;SDS011;34316;51.514;-0.178;2022-11-15T11:47:28;102.72;;;53.83;;
48524;SDS011;34316;51.514;-0.178;2022-11-15T11:52:03;114.85;;;55.90;;
48524;SDS011;34316;51.514;-0.178;2022-11-15T11:54:11;101.93;;;56.85;;
48524;SDS011;34316;51.514;-0.178;2022-11-15T11:56:33;108.18;;;58.63;;
48524;SDS011;34316;51.514;-0.178;2022-11-15T11:58:37;108.00;;;57.53;;
48524;SDS011;34316;51.514;-0.178;2022-11-15T12:00:43;101.45;;;57.67;;
48524;SDS011;34316;51.514;-0.178;2022-11-15T12:07:43;108.82;;;58.28;;
48524;SDS011;34316;51.514;-0.178;2022-11-15T12:09:58;104.15;;;57.45;;
48524;SDS011;34316;51.514;-0.178;2022-11-15T12:16:53;105.28;;;57.83;;
48524;SDS011;34316;51.514;-0.178;2022-11-15T12:18:56;102.75;;;54.67;;
48524;SDS011;34316;51.514;-0.178;2022-11-15T12:21:03;106.20;;;55.97;;
48524;SDS011;34316;51.514;-0.178;2022-11-15T12:23:30;96.65;;;53.90;;
48524;SDS011;34316;51.514;-0.178;2022-11-15T12:27:44;101.80;;;54.78;;
48524;SDS011;34316;51.514;-0.178;2022-11-15T12:30:15;94.80;;;55.30;;
48524;SDS011;34316;51.514;-0.178;2022-11-15T12:32:28;99.88;;;53.40;;
48524;SDS011;34316;51.514;-0.178;2022-11-15T12:34:38;93.43;;;52.92;;
48524;SDS011;34316;51.514;-0.178;2022-11-15T12:36:44;100.20;;;49.47;;
48524;SDS011;34316;51.514;-0.178;2022-11-15T12:38:52;90.13;;;50.92;;
48524;SDS011;34316;51.514;-0.178;2022-11-15T12:41:13;92.68;;;51.33;;
48524;SDS011;34316;51.514;-0.178;2022-11-15T12:45:28;90.82;;;52.88;;
48524;SDS011;34316;51.514;-0.178;2022-11-15T12:47:37;96.45;;;51.65;;
48524;SDS011;34316;51.514;-0.178;2022-11-15T12:53:48;91.07;;;48.80;;
48524;SDS011;34316;51.514;-0.178;2022-11-15T12:58:24;85.63;;;49.33;;
48524;SDS011;34316;51.514;-0.178;2022-11-15T13:00:38;90.00;;;49.80;;
48524;SDS011;34316;51.514;-0.178;2022-11-15T13:02:41;90.47;;;50.95;;
48524;SDS011;34316;51.514;-0.178;2022-11-15T13:04:46;88.05;;;51.22;;
48524;SDS011;34316;51.514;-0.178;2022-11-15T13:06:58;86.70;;;51.97;;
48524;SDS011;34316;51.514;-0.178;2022-11-15T13:16:36;90.97;;;49.08;;
48524;SDS011;34316;51.514;-0.178;2022-11-15T13:18:39;85.65;;;48.80;;
48524;SDS011;34316;51.514;-0.178;2022-11-15T13:20:44;88.23;;;51.23;;
48524;SDS011;34316;51.514;-0.178;2022-11-15T13:22:58;91.10;;;51.53;;
48524;SDS011;34316;51.514;-0.178;2022-11-15T13:25:01;96.15;;;52.35;;
48524;SDS011;34316;51.514;-0.178;2022-11-15T13:27:09;93.57;;;52.25;;
48524;SDS011;34316;51.514;-0.178;2022-11-15T13:29:17;86.13;;;51.58;;
48524;SDS011;34316;51.514;-0.178;2022-11-15T13:33:44;90.03;;;51.47;;
48524;SDS011;34316;51.514;-0.178;2022-11-15T13:35:47;91.53;;;51.00;;
48524;SDS011;34316;51.514;-0.178;2022-11-15T13:37:56;89.90;;;51.15;;
48524;SDS011;34316;51.514;-0.178;2022-11-15T13:42:31;93.53;;;52.83;;
48524;SDS011;34316;51.514;-0.178;2022-11-15T13:44:33;83.30;;;49.38;;